Time;durP1;ratioP1;P1;durP2;ratioP2;P2;SDS_P1;SDS_P2;PMS_P1;PMS_P2;Temp;Humidity;BMP_temperature;BMP_pressure;BME280_temperature;BME280_humidity;BME280_pressure;Samples;Min_cycle;Max_cycle;Signal;HPM_P1;HPM_P2
2023/01/30 00:00:28;;;;;;;41.53;28.40;;;;;;;;;;5080598;28;20046;-73
2023/01/30 00:02:54;;;;;;;45.88;29.48;;;;;;;;;;5093208;28;20056;-73
2023/01/30 00:05:20;;;;;;;47.97;30.67;;;;;;;;;;5087537;28;20043;-73
2023/01/30 00:07:47;;;;;;;43.17;29.65;;;;;;;;;;5075435;28;20036;-73
2023/01/30 00:10:13;;;;;;;42.13;29.50;;;;;;;;;;5091989;28;20555;-73
2023/01/30 00:12:39;;;;;;;41.25;28.00;;;;;;;;;;5093709;28;20040;-73
2023/01/30 00:15:05;;;;;;;44.55;28.90;;;;;;;;;;5074765;28;20040;-73
2023/01/30 00:17:32;;;;;;;42.65;28.90;;;;;;;;;;5077528;28;20047;-73
2023/01/30 00:19:58;;;;;;;38.05;27.83;;;;;;;;;;5073679;28;20407;-73
2023/01/30 00:22:24;;;;;;;43.17;26.15;;;;;;;;;;5078505;28;20063;-73
2023/01/30 00:24:50;;;;;;;43.08;27.38;;;;;;;;;;5087092;28;20055;-73
2023/01/30 00:27:16;;;;;;;40.40;25.98;;;;;;;;;;5084118;28;20044;-73
2023/01/30 00:29:42;;;;;;;40.33;27.33;;;;;;;;;;5085624;28;20062;-73
2023/01/30 00:32:08;;;;;;;35.22;23.48;;;;;;;;;;5092463;28;20052;-73
2023/01/30 00:34:34;;;;;;;39.72;25.10;;;;;;;;;;5072507;28;20055;-74
2023/01/30 00:37:00;;;;;;;37.30;24.45;;;;;;;;;;5077664;28;20040;-73
2023/01/30 00:39:26;;;;;;;35.72;23.58;;;;;;;;;;5084406;28;20045;-74
2023/01/30 00:47:22;;;;;;;34.15;22.50;;;;;;;;;;5073862;28;20052;-74
2023/01/30 00:49:48;;;;;;;32.38;22.95;;;;;;;;;;5083109;28;20036;-74
2023/01/30 00:52:14;;;;;;;32.63;22.83;;;;;;;;;;5081430;28;20044;-73
2023/01/30 00:54:40;;;;;;;36.00;22.98;;;;;;;;;;5088136;28;20048;-73
2023/01/30 00:57:06;;;;;;;33.72;19.85;;;;;;;;;;5089834;28;20048;-73
2023/01/30 00:59:32;;;;;;;34.55;23.15;;;;;;;;;;5092231;28;20043;-73
2023/01/30 01:01:58;;;;;;;35.53;21.80;;;;;;;;;;5092865;28;20379;-73
2023/01/30 01:04:24;;;;;;;32.15;21.35;;;;;;;;;;5093855;28;20060;-74
2023/01/30 01:06:50;;;;;;;35.35;21.63;;;;;;;;;;5091617;28;20052;-74
2023/01/30 01:09:17;;;;;;;32.22;20.67;;;;;;;;;;5087464;28;20048;-73
2023/01/30 01:11:43;;;;;;;34.08;22.23;;;;;;;;;;5072471;28;20047;-73
2023/01/30 01:14:09;;;;;;;31.30;22.50;;;;;;;;;;5074256;28;20391;-73
2023/01/30 01:16:35;;;;;;;34.35;21.80;;;;;;;;;;5057127;28;20398;-74
2023/01/30 01:19:01;;;;;;;32.10;20.98;;;;;;;;;;5076394;28;20048;-73
2023/01/30 01:21:28;;;;;;;29.77;20.20;;;;;;;;;;5087594;28;20037;-73
2023/01/30 01:23:55;;;;;;;37.50;22.27;;;;;;;;;;5084693;28;20071;-73
2023/01/30 01:26:21;;;;;;;31.52;21.52;;;;;;;;;;5086128;28;20041;-73
2023/01/30 01:28:47;;;;;;;31.30;20.70;;;;;;;;;;5077583;28;20040;-73
2023/01/30 01:31:14;;;;;;;38.67;22.25;;;;;;;;;;5091232;28;20052;-73
2023/01/30 01:33:40;;;;;;;32.63;18.77;;;;;;;;;;5078055;28;20090;-73
2023/01/30 01:36:07;;;;;;;29.23;20.20;;;;;;;;;;5074055;28;20089;-73
2023/01/30 01:38:33;;;;;;;33.38;20.58;;;;;;;;;;5080497;28;20043;-73
2023/01/30 01:41:03;;;;;;;28.23;21.15;;;;;;;;;;5092864;28;20051;-72
2023/01/30 01:43:31;;;;;;;29.50;18.42;;;;;;;;;;5080154;28;20055;-74
2023/01/30 01:46:03;;;;;;;33.45;19.92;;;;;;;;;;5079795;28;20052;-74
2023/01/30 01:48:38;;;;;;;28.55;17.30;;;;;;;;;;5089014;28;20533;-74
2023/01/30 01:51:12;;;;;;;28.20;18.10;;;;;;;;;;5072974;28;20041;-74
2023/01/30 01:53:50;;;;;;;30.02;19.90;;;;;;;;;;5072459;28;20040;-74
2023/01/30 01:56:18;;;;;;;32.50;20.33;;;;;;;;;;5072707;28;20048;-74
2023/01/30 01:58:50;;;;;;;25.65;15.80;;;;;;;;;;5077382;28;20043;-74
2023/01/30 02:01:16;;;;;;;26.65;15.40;;;;;;;;;;5080927;28;20108;-74
2023/01/30 02:03:45;;;;;;;26.52;15.32;;;;;;;;;;5075421;28;20053;-74
2023/01/30 02:06:11;;;;;;;20.60;12.23;;;;;;;;;;5073972;28;20048;-74
2023/01/30 02:08:45;;;;;;;22.65;13.43;;;;;;;;;;5071648;28;20068;-74
2023/01/30 02:11:17;;;;;;;18.23;11.93;;;;;;;;;;5085540;28;20490;-74
2023/01/30 02:13:44;;;;;;;20.00;10.52;;;;;;;;;;5072649;28;20063;-73
2023/01/30 02:16:10;;;;;;;16.45;9.80;;;;;;;;;;5081012;28;20090;-74
2023/01/30 02:18:38;;;;;;;15.15;8.80;;;;;;;;;;5094571;28;20441;-74
2023/01/30 02:21:12;;;;;;;15.52;8.68;;;;;;;;;;5055409;28;20052;-73
2023/01/30 02:23:47;;;;;;;14.60;8.43;;;;;;;;;;5076928;28;20043;-74
2023/01/30 02:26:13;;;;;;;12.13;7.68;;;;;;;;;;5078177;28;20543;-74
2023/01/30 02:28:45;;;;;;;11.20;6.65;;;;;;;;;;5087007;28;20055;-73
2023/01/30 02:31:20;;;;;;;11.43;6.82;;;;;;;;;;5090421;28;20044;-73
2023/01/30 02:33:46;;;;;;;13.07;5.95;;;;;;;;;;5078101;28;20379;-73
2023/01/30 02:36:33;;;;;;;11.38;5.22;;;;;;;;;;5094336;28;20044;-73
2023/01/30 02:39:18;;;;;;;10.57;5.22;;;;;;;;;;5050402;28;20052;-73
2023/01/30 02:42:05;;;;;;;11.50;5.05;;;;;;;;;;5075160;28;20039;-73
2023/01/30 02:44:52;;;;;;;13.32;5.10;;;;;;;;;;5085748;28;20040;-75
2023/01/30 02:47:37;;;;;;;12.85;5.47;;;;;;;;;;5080353;28;20383;-75
2023/01/30 02:50:32;;;;;;;12.15;4.97;;;;;;;;;;5081014;28;20051;-74
2023/01/30 02:52:58;;;;;;;11.35;4.78;;;;;;;;;;4989963;28;20552;-74
2023/01/30 02:55:26;;;;;;;13.43;5.43;;;;;;;;;;4978448;28;20042;-74
2023/01/30 02:57:53;;;;;;;12.93;5.00;;;;;;;;;;4986493;28;20086;-74
2023/01/30 03:00:22;;;;;;;11.73;4.43;;;;;;;;;;4990628;28;20058;-74
2023/01/30 03:02:49;;;;;;;16.90;5.35;;;;;;;;;;4974380;28;20057;-74
2023/01/30 03:05:18;;;;;;;13.40;4.22;;;;;;;;;;4981365;28;20046;-74
2023/01/30 03:07:48;;;;;;;10.88;5.13;;;;;;;;;;4976494;28;20050;-73
2023/01/30 03:10:14;;;;;;;12.52;5.47;;;;;;;;;;4992556;28;20560;-73
2023/01/30 03:12:47;;;;;;;12.88;5.50;;;;;;;;;;4993010;28;20098;-74
2023/01/30 03:15:16;;;;;;;15.93;5.30;;;;;;;;;;4994024;28;20046;-74
2023/01/30 03:17:45;;;;;;;12.10;5.45;;;;;;;;;;4984877;28;20460;-73
2023/01/30 03:20:11;;;;;;;21.10;5.63;;;;;;;;;;4980623;28;20042;-74
2023/01/30 03:22:37;;;;;;;15.00;5.82;;;;;;;;;;4993169;28;20420;-73
2023/01/30 03:25:03;;;;;;;16.83;5.80;;;;;;;;;;4993663;28;20054;-74
2023/01/30 03:27:29;;;;;;;19.38;5.32;;;;;;;;;;4979694;28;20105;-73
2023/01/30 03:29:56;;;;;;;20.23;6.07;;;;;;;;;;5045913;28;20049;-73
2023/01/30 03:32:22;;;;;;;21.35;5.85;;;;;;;;;;5069403;28;20495;-74
2023/01/30 03:34:48;;;;;;;18.88;5.40;;;;;;;;;;5071418;28;20418;-73
2023/01/30 03:37:14;;;;;;;23.73;5.80;;;;;;;;;;5041144;28;20084;-74
2023/01/30 03:39:40;;;;;;;18.27;5.13;;;;;;;;;;5060781;28;20044;-73
2023/01/30 03:42:07;;;;;;;20.38;5.45;;;;;;;;;;5058468;28;20045;-73
2023/01/30 03:44:33;;;;;;;24.08;6.20;;;;;;;;;;5062749;28;20044;-74
2023/01/30 03:46:59;;;;;;;19.63;5.53;;;;;;;;;;5042875;28;20041;-74
2023/01/30 03:49:25;;;;;;;17.63;5.30;;;;;;;;;;5059157;28;20041;-74
2023/01/30 03:51:51;;;;;;;24.10;5.88;;;;;;;;;;5056720;28;20131;-74
2023/01/30 03:54:17;;;;;;;24.52;5.65;;;;;;;;;;5057020;28;20041;-74
2023/01/30 03:56:43;;;;;;;19.20;4.93;;;;;;;;;;5055809;28;20048;-74
2023/01/30 03:59:09;;;;;;;24.73;5.07;;;;;;;;;;5056687;28;20041;-74
2023/01/30 04:01:35;;;;;;;18.92;4.72;;;;;;;;;;5064618;28;20036;-74
2023/01/30 04:04:02;;;;;;;20.90;5.32;;;;;;;;;;5086406;28;20056;-74
2023/01/30 04:06:28;;;;;;;24.58;4.60;;;;;;;;;;5086781;28;20036;-74
2023/01/30 04:08:54;;;;;;;23.45;4.03;;;;;;;;;;5082539;28;20444;-74
2023/01/30 04:11:20;;;;;;;23.75;4.53;;;;;;;;;;5086921;28;20067;-74
2023/01/30 04:13:46;;;;;;;17.35;4.00;;;;;;;;;;5094305;28;20040;-73
2023/01/30 04:16:15;;;;;;;18.65;3.85;;;;;;;;;;5087238;28;20394;-74
2023/01/30 04:18:41;;;;;;;24.52;4.70;;;;;;;;;;5074661;28;20406;-74
2023/01/30 04:21:07;;;;;;;21.92;4.50;;;;;;;;;;5082256;28;20055;-74
2023/01/30 04:23:33;;;;;;;25.17;4.70;;;;;;;;;;5079248;28;20044;-73
2023/01/30 04:25:59;;;;;;;25.73;5.00;;;;;;;;;;5078883;28;20044;-73
2023/01/30 04:28:25;;;;;;;22.77;4.60;;;;;;;;;;5075466;28;20048;-73
2023/01/30 04:30:54;;;;;;;24.83;5.07;;;;;;;;;;5084244;28;20117;-73
2023/01/30 04:33:20;;;;;;;22.92;4.35;;;;;;;;;;5079805;28;20041;-75
2023/01/30 04:35:56;;;;;;;22.48;4.70;;;;;;;;;;5087330;28;20093;-73
2023/01/30 04:38:22;;;;;;;24.35;4.60;;;;;;;;;;5078297;28;20106;-73
2023/01/30 04:40:49;;;;;;;23.52;4.50;;;;;;;;;;5079595;28;20043;-74
2023/01/30 04:43:15;;;;;;;34.20;5.38;;;;;;;;;;5077834;28;20072;-73
2023/01/30 04:45:45;;;;;;;23.70;4.32;;;;;;;;;;5088429;28;20037;-73
2023/01/30 04:48:11;;;;;;;21.85;4.30;;;;;;;;;;5082633;28;20048;-74
2023/01/30 04:50:37;;;;;;;28.98;5.10;;;;;;;;;;5087561;28;20051;-73
2023/01/30 04:53:03;;;;;;;20.02;4.32;;;;;;;;;;5084275;28;20048;-74
2023/01/30 04:55:29;;;;;;;24.08;5.05;;;;;;;;;;5088630;28;20074;-73
2023/01/30 04:57:55;;;;;;;25.08;5.07;;;;;;;;;;5076818;28;20050;-73
2023/01/30 05:00:21;;;;;;;26.60;4.55;;;;;;;;;;5080099;28;20509;-73
2023/01/30 05:02:48;;;;;;;27.50;4.72;;;;;;;;;;5091410;28;20052;-73
2023/01/30 05:05:14;;;;;;;25.02;4.22;;;;;;;;;;5074788;28;20513;-73
2023/01/30 05:07:40;;;;;;;28.17;4.72;;;;;;;;;;5073120;28;20142;-74
2023/01/30 05:10:06;;;;;;;20.88;4.18;;;;;;;;;;5090909;28;20100;-74
2023/01/30 05:12:32;;;;;;;23.67;5.00;;;;;;;;;;5093186;28;20036;-74
2023/01/30 05:14:59;;;;;;;23.73;4.07;;;;;;;;;;5093578;28;20401;-73
2023/01/30 05:17:25;;;;;;;23.45;4.90;;;;;;;;;;5074814;28;20048;-73
2023/01/30 05:19:51;;;;;;;24.65;3.95;;;;;;;;;;5071073;28;20515;-74
2023/01/30 05:22:17;;;;;;;22.80;4.45;;;;;;;;;;5073104;28;20044;-74
2023/01/30 05:24:43;;;;;;;28.10;4.28;;;;;;;;;;5088041;28;20043;-74
2023/01/30 05:27:09;;;;;;;23.98;4.43;;;;;;;;;;5091432;28;20047;-73
2023/01/30 05:29:35;;;;;;;24.38;4.53;;;;;;;;;;5082251;28;20036;-73
2023/01/30 05:32:01;;;;;;;24.33;4.57;;;;;;;;;;5075470;28;20071;-73
2023/01/30 05:34:27;;;;;;;23.45;4.13;;;;;;;;;;5089854;28;20036;-73
2023/01/30 05:36:53;;;;;;;27.70;5.07;;;;;;;;;;5076267;28;20044;-73
2023/01/30 05:39:19;;;;;;;27.35;4.50;;;;;;;;;;5075133;28;20044;-73
2023/01/30 05:41:45;;;;;;;25.50;4.32;;;;;;;;;;5084435;28;20044;-74
2023/01/30 05:44:11;;;;;;;28.00;4.55;;;;;;;;;;5090331;28;20044;-74
2023/01/30 05:46:37;;;;;;;28.00;5.50;;;;;;;;;;5086730;28;20052;-73
2023/01/30 05:49:03;;;;;;;22.88;4.68;;;;;;;;;;5082097;28;20071;-74
2023/01/30 05:51:30;;;;;;;28.98;4.60;;;;;;;;;;5079270;28;20059;-73
2023/01/30 05:53:56;;;;;;;23.27;3.47;;;;;;;;;;5095381;28;20048;-74
2023/01/30 05:56:22;;;;;;;24.42;4.20;;;;;;;;;;5094794;28;20048;-73
2023/01/30 05:58:52;;;;;;;27.75;4.10;;;;;;;;;;5060779;28;20047;-73
2023/01/30 06:01:18;;;;;;;30.95;4.72;;;;;;;;;;5077772;28;20049;-73
2023/01/30 06:03:45;;;;;;;23.40;4.40;;;;;;;;;;5076549;28;20053;-73
2023/01/30 06:06:11;;;;;;;34.10;4.38;;;;;;;;;;5085582;28;20048;-73
2023/01/30 06:08:37;;;;;;;24.83;4.57;;;;;;;;;;5090629;28;20033;-73
2023/01/30 06:11:04;;;;;;;27.33;4.75;;;;;;;;;;5087415;28;20040;-73
2023/01/30 06:13:30;;;;;;;34.45;4.70;;;;;;;;;;5077716;28;20062;-73
2023/01/30 06:15:56;;;;;;;28.45;4.68;;;;;;;;;;5078459;28;20052;-73
2023/01/30 06:18:23;;;;;;;31.45;4.32;;;;;;;;;;5087075;28;20047;-74
2023/01/30 06:20:52;;;;;;;27.10;4.90;;;;;;;;;;5082307;28;20036;-73
2023/01/30 06:23:19;;;;;;;25.98;4.43;;;;;;;;;;5058504;28;20406;-74
2023/01/30 06:25:48;;;;;;;26.63;4.88;;;;;;;;;;5090344;28;20048;-73
2023/01/30 06:28:15;;;;;;;27.70;4.45;;;;;;;;;;5088644;28;20040;-73
2023/01/30 06:30:41;;;;;;;25.00;4.38;;;;;;;;;;5091580;28;20040;-73
2023/01/30 06:33:07;;;;;;;28.33;4.75;;;;;;;;;;5092497;28;20069;-74
2023/01/30 06:35:34;;;;;;;32.10;5.00;;;;;;;;;;5080118;28;20051;-73
2023/01/30 06:38:00;;;;;;;32.00;4.20;;;;;;;;;;5080904;28;20039;-74
2023/01/30 06:40:26;;;;;;;37.58;5.30;;;;;;;;;;5088083;28;20055;-73
2023/01/30 06:42:52;;;;;;;23.85;4.20;;;;;;;;;;5078617;28;20043;-74
2023/01/30 06:45:18;;;;;;;33.08;4.18;;;;;;;;;;5092004;28;20505;-73
2023/01/30 06:47:45;;;;;;;31.40;4.28;;;;;;;;;;5077864;28;20053;-74
2023/01/30 06:50:12;;;;;;;26.92;3.75;;;;;;;;;;5069913;28;20517;-73
2023/01/30 06:52:47;;;;;;;26.60;4.05;;;;;;;;;;5088978;28;20123;-73
2023/01/30 06:55:15;;;;;;;23.95;3.78;;;;;;;;;;5095905;28;20074;-74
2023/01/30 06:57:41;;;;;;;32.33;4.72;;;;;;;;;;5082254;28;20044;-73
2023/01/30 07:00:09;;;;;;;24.05;4.03;;;;;;;;;;5078816;28;20049;-73
2023/01/30 07:02:35;;;;;;;32.42;4.95;;;;;;;;;;5091859;28;20051;-73
2023/01/30 07:05:02;;;;;;;27.83;4.22;;;;;;;;;;5093465;28;20043;-73
2023/01/30 07:07:29;;;;;;;31.08;4.60;;;;;;;;;;5095941;28;20086;-75
2023/01/30 07:09:55;;;;;;;26.80;4.65;;;;;;;;;;5079627;28;20048;-74
2023/01/30 07:12:21;;;;;;;31.20;4.35;;;;;;;;;;5074818;28;20090;-74
2023/01/30 07:14:47;;;;;;;26.30;4.10;;;;;;;;;;5074721;28;20048;-74
2023/01/30 07:17:14;;;;;;;28.15;4.57;;;;;;;;;;5083363;28;20067;-73
2023/01/30 07:19:40;;;;;;;28.38;4.32;;;;;;;;;;5091140;28;20060;-75
2023/01/30 07:22:06;;;;;;;25.92;3.95;;;;;;;;;;5059179;28;20072;-74
2023/01/30 07:24:32;;;;;;;21.83;3.97;;;;;;;;;;5077283;28;20044;-74
2023/01/30 07:26:58;;;;;;;28.77;4.30;;;;;;;;;;5086333;28;20055;-74
2023/01/30 07:29:25;;;;;;;26.95;3.97;;;;;;;;;;5093863;28;20059;-73
2023/01/30 07:31:51;;;;;;;28.88;4.57;;;;;;;;;;5094269;28;20047;-74
2023/01/30 07:34:17;;;;;;;28.25;4.13;;;;;;;;;;5093498;28;20047;-74
2023/01/30 07:36:43;;;;;;;28.52;4.15;;;;;;;;;;5086628;28;20448;-74
2023/01/30 07:39:09;;;;;;;27.42;4.22;;;;;;;;;;5090712;28;20049;-74
2023/01/30 07:41:35;;;;;;;26.15;4.50;;;;;;;;;;5094397;28;20051;-74
2023/01/30 07:44:01;;;;;;;26.00;4.03;;;;;;;;;;5080849;28;20047;-74
2023/01/30 07:46:33;;;;;;;28.63;4.35;;;;;;;;;;5073994;28;20399;-74
2023/01/30 07:49:00;;;;;;;30.58;4.55;;;;;;;;;;5079538;28;20052;-74
2023/01/30 07:51:26;;;;;;;31.33;4.40;;;;;;;;;;5083003;28;20119;-73
2023/01/30 07:53:52;;;;;;;31.92;4.65;;;;;;;;;;5091764;28;20074;-74
2023/01/30 07:56:20;;;;;;;27.50;4.72;;;;;;;;;;5087575;28;20044;-74
2023/01/30 07:58:47;;;;;;;30.80;4.60;;;;;;;;;;5073885;28;20041;-74
2023/01/30 08:01:13;;;;;;;33.95;5.13;;;;;;;;;;5086489;28;20045;-74
2023/01/30 08:03:39;;;;;;;24.90;4.72;;;;;;;;;;5073529;28;20075;-74
2023/01/30 08:06:06;;;;;;;29.48;4.57;;;;;;;;;;5060205;28;20052;-74
2023/01/30 08:08:32;;;;;;;34.65;4.70;;;;;;;;;;5093622;28;20051;-74
2023/01/30 08:10:58;;;;;;;30.35;4.45;;;;;;;;;;5079073;28;20040;-73
2023/01/30 08:13:24;;;;;;;30.40;4.22;;;;;;;;;;5073263;28;20097;-74
2023/01/30 08:15:50;;;;;;;27.60;4.07;;;;;;;;;;5074226;28;20403;-73
2023/01/30 08:18:16;;;;;;;28.60;4.20;;;;;;;;;;5093092;28;20400;-73
2023/01/30 08:20:43;;;;;;;25.05;3.78;;;;;;;;;;5092281;28;20052;-73
2023/01/30 08:23:09;;;;;;;26.33;4.32;;;;;;;;;;5092478;28;20453;-73
2023/01/30 08:25:36;;;;;;;31.10;4.63;;;;;;;;;;5080233;28;20055;-74
2023/01/30 08:28:02;;;;;;;30.65;4.70;;;;;;;;;;5073284;28;20384;-73
2023/01/30 08:30:29;;;;;;;34.42;4.85;;;;;;;;;;5063448;28;20130;-72
2023/01/30 08:32:55;;;;;;;31.48;4.35;;;;;;;;;;5084101;28;20086;-73
2023/01/30 08:35:21;;;;;;;30.35;4.55;;;;;;;;;;5078296;28;20089;-72
2023/01/30 08:37:47;;;;;;;26.08;3.80;;;;;;;;;;5080840;28;20049;-73
2023/01/30 08:40:14;;;;;;;29.77;4.63;;;;;;;;;;5089791;28;20036;-73
2023/01/30 08:42:40;;;;;;;29.20;5.13;;;;;;;;;;5086639;28;20083;-73
2023/01/30 08:45:06;;;;;;;29.67;4.47;;;;;;;;;;5072704;28;20049;-73
2023/01/30 08:47:34;;;;;;;16.17;4.00;;;;;;;;;;5074846;28;20036;-73
2023/01/30 08:50:00;;;;;;;26.33;4.43;;;;;;;;;;5081905;28;20056;-73
2023/01/30 08:52:26;;;;;;;26.48;4.50;;;;;;;;;;5078214;28;20056;-73
2023/01/30 08:54:52;;;;;;;29.80;5.10;;;;;;;;;;5072864;28;20054;-74
2023/01/30 08:57:18;;;;;;;20.20;3.42;;;;;;;;;;5072593;28;20182;-73
2023/01/30 08:59:44;;;;;;;32.15;4.72;;;;;;;;;;5072717;28;20052;-73
2023/01/30 09:02:11;;;;;;;27.23;4.53;;;;;;;;;;5072606;28;20117;-73
2023/01/30 09:04:37;;;;;;;28.90;4.53;;;;;;;;;;5075140;28;20053;-73
2023/01/30 09:07:03;;;;;;;37.72;4.47;;;;;;;;;;5075361;28;20124;-73
2023/01/30 09:09:29;;;;;;;30.48;4.47;;;;;;;;;;5079305;28;20048;-73
2023/01/30 09:11:56;;;;;;;27.92;5.15;;;;;;;;;;5072223;28;20395;-73
2023/01/30 09:14:22;;;;;;;26.98;4.25;;;;;;;;;;5072114;28;20450;-73
2023/01/30 09:16:54;;;;;;;31.80;4.70;;;;;;;;;;5083264;28;20413;-74
2023/01/30 09:19:29;;;;;;;29.27;4.90;;;;;;;;;;5091606;28;20505;-73
2023/01/30 09:21:55;;;;;;;26.85;5.03;;;;;;;;;;5088688;28;20056;-73
2023/01/30 09:24:26;;;;;;;32.72;4.93;;;;;;;;;;5080341;28;20048;-72
2023/01/30 09:26:53;;;;;;;29.35;4.35;;;;;;;;;;5085884;28;20052;-73
2023/01/30 09:29:19;;;;;;;27.65;5.43;;;;;;;;;;5087992;28;20044;-73
2023/01/30 09:31:45;;;;;;;29.90;5.07;;;;;;;;;;5092299;28;20464;-74
2023/01/30 09:34:11;;;;;;;29.25;4.93;;;;;;;;;;5085766;28;20040;-74
2023/01/30 09:36:38;;;;;;;29.30;5.43;;;;;;;;;;5071856;28;20051;-74
2023/01/30 09:39:04;;;;;;;33.90;4.80;;;;;;;;;;5083474;28;20406;-74
2023/01/30 09:41:49;;;;;;;29.30;4.60;;;;;;;;;;5071639;28;20060;-76
2023/01/30 09:44:34;;;;;;;28.00;5.38;;;;;;;;;;5089328;28;20071;-74
2023/01/30 09:47:11;;;;;;;29.38;4.60;;;;;;;;;;5089679;28;20485;-73
2023/01/30 09:49:42;;;;;;;25.73;4.18;;;;;;;;;;5081397;28;20586;-73
2023/01/30 09:52:23;;;;;;;30.20;4.97;;;;;;;;;;5084914;28;20051;-73
2023/01/30 09:54:51;;;;;;;30.27;4.78;;;;;;;;;;5072692;28;20110;-73
2023/01/30 09:57:20;;;;;;;23.55;4.13;;;;;;;;;;5082129;28;20055;-74
2023/01/30 09:59:46;;;;;;;25.45;4.72;;;;;;;;;;5080442;28;20044;-73
2023/01/30 10:02:12;;;;;;;41.63;6.05;;;;;;;;;;5082399;28;20053;-74
2023/01/30 10:04:44;;;;;;;27.02;4.85;;;;;;;;;;5072007;28;20056;-74
2023/01/30 10:07:10;;;;;;;31.02;4.65;;;;;;;;;;5085030;28;20084;-74
2023/01/30 10:09:39;;;;;;;23.13;4.78;;;;;;;;;;5092009;28;20073;-74
2023/01/30 10:12:12;;;;;;;31.40;4.70;;;;;;;;;;5091873;28;20140;-74
2023/01/30 10:14:53;;;;;;;29.02;4.65;;;;;;;;;;5090747;28;20036;-74
2023/01/30 10:17:33;;;;;;;24.60;3.47;;;;;;;;;;5058141;28;20044;-74
2023/01/30 10:20:05;;;;;;;20.58;3.30;;;;;;;;;;5092098;28;20042;-74
2023/01/30 10:22:38;;;;;;;24.83;3.83;;;;;;;;;;5089826;28;20052;-73
2023/01/30 10:25:17;;;;;;;30.67;4.63;;;;;;;;;;5079779;28;20422;-74
2023/01/30 10:28:05;;;;;;;32.65;5.53;;;;;;;;;;5081130;28;20047;-75
2023/01/30 10:30:33;;;;;;;26.65;4.80;;;;;;;;;;5086528;28;20510;-74
2023/01/30 10:33:07;;;;;;;31.52;5.30;;;;;;;;;;5083420;28;20040;-74
2023/01/30 10:35:35;;;;;;;28.23;4.78;;;;;;;;;;5081562;28;20070;-73
2023/01/30 10:38:11;;;;;;;32.40;5.25;;;;;;;;;;5088220;28;20151;-73
2023/01/30 10:40:43;;;;;;;31.42;4.53;;;;;;;;;;5094255;28;20505;-73
2023/01/30 10:43:09;;;;;;;26.02;4.68;;;;;;;;;;5095343;28;20059;-73
2023/01/30 10:45:42;;;;;;;30.27;5.22;;;;;;;;;;5095485;28;20048;-73
2023/01/30 10:48:14;;;;;;;32.65;5.55;;;;;;;;;;5095462;28;20145;-73
2023/01/30 10:50:40;;;;;;;30.17;5.15;;;;;;;;;;5094680;28;20047;-73
2023/01/30 10:53:19;;;;;;;30.02;4.95;;;;;;;;;;5095318;28;20048;-73
2023/01/30 10:55:48;;;;;;;32.45;4.93;;;;;;;;;;5086859;28;20040;-73
2023/01/30 10:58:17;;;;;;;24.88;5.20;;;;;;;;;;5095437;28;20063;-73
2023/01/30 11:00:50;;;;;;;27.70;5.25;;;;;;;;;;5091634;28;20512;-73
2023/01/30 11:03:20;;;;;;;26.73;4.93;;;;;;;;;;5080974;28;20052;-73
2023/01/30 11:05:54;;;;;;;14.67;2.70;;;;;;;;;;5087612;28;20048;-74
2023/01/30 11:08:20;;;;;;;12.77;2.58;;;;;;;;;;5074871;28;20271;-74
2023/01/30 11:10:46;;;;;;;17.65;2.53;;;;;;;;;;5081314;28;20044;-73
2023/01/30 11:13:16;;;;;;;13.73;2.42;;;;;;;;;;5089474;28;20032;-73
2023/01/30 11:15:47;;;;;;;17.55;2.75;;;;;;;;;;5083521;28;20098;-73
2023/01/30 11:18:13;;;;;;;18.55;2.67;;;;;;;;;;5092719;28;20127;-73
2023/01/30 11:20:40;;;;;;;17.08;2.83;;;;;;;;;;5080251;28;20394;-73
2023/01/30 11:23:07;;;;;;;15.85;2.35;;;;;;;;;;5090519;28;20051;-72
2023/01/30 11:25:47;;;;;;;19.48;2.70;;;;;;;;;;5087421;28;20494;-73
2023/01/30 11:28:16;;;;;;;18.77;3.20;;;;;;;;;;5074264;28;20102;-73
2023/01/30 11:30:42;;;;;;;19.05;2.80;;;;;;;;;;5075679;28;20048;-73
2023/01/30 11:33:13;;;;;;;18.45;2.60;;;;;;;;;;5074137;28;20479;-74
2023/01/30 11:36:03;;;;;;;21.67;2.97;;;;;;;;;;5074368;28;20056;-73
2023/01/30 11:38:33;;;;;;;19.27;3.13;;;;;;;;;;5078918;28;20314;-74
2023/01/30 11:41:18;;;;;;;15.07;2.80;;;;;;;;;;5090377;28;20073;-73
2023/01/30 11:43:44;;;;;;;21.85;3.20;;;;;;;;;;5072930;28;20556;-73
2023/01/30 11:46:12;;;;;;;16.38;3.00;;;;;;;;;;5070563;28;20535;-73
2023/01/30 11:48:46;;;;;;;18.88;2.83;;;;;;;;;;5094062;28;20048;-73
2023/01/30 11:51:12;;;;;;;15.93;3.08;;;;;;;;;;5090186;28;20067;-73
2023/01/30 11:53:41;;;;;;;20.65;3.25;;;;;;;;;;5061325;28;20032;-74
2023/01/30 11:56:22;;;;;;;17.42;3.03;;;;;;;;;;5087462;28;20075;-72
2023/01/30 11:59:26;;;;;;;20.95;3.03;;;;;;;;;;5087187;28;20048;-73
2023/01/30 12:01:52;;;;;;;19.85;3.03;;;;;;;;;;5011779;28;20450;-74
2023/01/30 12:04:19;;;;;;;17.23;3.10;;;;;;;;;;5011644;28;20416;-73
2023/01/30 12:06:45;;;;;;;17.55;2.75;;;;;;;;;;5011360;28;20057;-73
2023/01/30 12:09:29;;;;;;;20.45;3.33;;;;;;;;;;5011122;28;20488;-74
2023/01/30 12:11:55;;;;;;;15.50;2.40;;;;;;;;;;5011786;28;20068;-73
2023/01/30 12:14:35;;;;;;;14.77;2.40;;;;;;;;;;5010314;28;20170;-73
2023/01/30 12:17:20;;;;;;;17.88;2.70;;;;;;;;;;5010392;28;20058;-73
2023/01/30 12:19:51;;;;;;;15.05;2.42;;;;;;;;;;5011108;28;20061;-74
2023/01/30 12:22:32;;;;;;;13.32;2.30;;;;;;;;;;5011781;28;20536;-73
2023/01/30 12:25:02;;;;;;;11.98;1.98;;;;;;;;;;5011488;28;20045;-73
2023/01/30 12:27:47;;;;;;;17.50;2.97;;;;;;;;;;5011474;28;20157;-73
2023/01/30 12:30:31;;;;;;;14.43;2.53;;;;;;;;;;5006454;28;20113;-73
2023/01/30 12:33:01;;;;;;;18.27;2.95;;;;;;;;;;5043526;28;20061;-73
2023/01/30 12:35:34;;;;;;;11.82;2.08;;;;;;;;;;5073189;28;20051;-74
2023/01/30 12:38:06;;;;;;;12.93;2.35;;;;;;;;;;5073045;28;20049;-73
2023/01/30 12:40:38;;;;;;;14.40;2.47;;;;;;;;;;5088747;28;20074;-73
2023/01/30 12:43:12;;;;;;;14.90;2.20;;;;;;;;;;5092615;28;20391;-73
2023/01/30 12:45:46;;;;;;;13.90;2.17;;;;;;;;;;5081563;28;20120;-73
2023/01/30 12:48:31;;;;;;;16.98;2.63;;;;;;;;;;5075272;28;20066;-74
2023/01/30 12:51:16;;;;;;;18.75;3.15;;;;;;;;;;5079897;28;20189;-74
2023/01/30 12:53:48;;;;;;;19.05;3.08;;;;;;;;;;5088163;28;20048;-74
2023/01/30 12:56:23;;;;;;;15.80;3.08;;;;;;;;;;5091112;28;20048;-73
2023/01/30 12:59:07;;;;;;;28.27;3.55;;;;;;;;;;5072880;28;20554;-74
2023/01/30 13:01:52;;;;;;;17.83;3.10;;;;;;;;;;5072171;28;20067;-72
2023/01/30 13:04:21;;;;;;;19.58;3.63;;;;;;;;;;5072411;28;20106;-73
2023/01/30 13:06:56;;;;;;;17.98;3.10;;;;;;;;;;5089566;28;20040;-74
2023/01/30 13:09:51;;;;;;;18.48;2.85;;;;;;;;;;5092813;28;20165;-74
2023/01/30 13:12:21;;;;;;;23.45;3.95;;;;;;;;;;5055150;28;20070;-73
2023/01/30 13:14:55;;;;;;;17.95;3.20;;;;;;;;;;5088914;28;20059;-73
2023/01/30 13:17:21;;;;;;;21.08;3.72;;;;;;;;;;5092458;28;20047;-74
2023/01/30 13:19:53;;;;;;;26.25;3.22;;;;;;;;;;5089103;28;20055;-74
2023/01/30 13:22:38;;;;;;;19.25;3.33;;;;;;;;;;5081570;28;20505;-73
2023/01/30 13:25:15;;;;;;;21.85;3.70;;;;;;;;;;5091855;28;20091;-74
2023/01/30 13:27:44;;;;;;;24.10;3.42;;;;;;;;;;5089090;28;21820;-73
2023/01/30 13:30:13;;;;;;;22.70;3.90;;;;;;;;;;5090416;28;20497;-73
2023/01/30 13:32:42;;;;;;;19.23;3.50;;;;;;;;;;5081922;28;20146;-75
2023/01/30 13:35:21;;;;;;;21.63;3.60;;;;;;;;;;5086196;28;20053;-74
2023/01/30 13:37:48;;;;;;;21.75;3.42;;;;;;;;;;5072076;28;20067;-74
2023/01/30 13:40:18;;;;;;;22.90;3.10;;;;;;;;;;5083672;28;20047;-74
2023/01/30 13:42:49;;;;;;;23.10;3.42;;;;;;;;;;5092295;28;20040;-73
2023/01/30 13:45:17;;;;;;;21.27;3.65;;;;;;;;;;5087684;28;20078;-74
2023/01/30 13:47:43;;;;;;;24.80;3.53;;;;;;;;;;5091956;28;20459;-74
2023/01/30 13:50:12;;;;;;;21.35;3.85;;;;;;;;;;5080792;28;20076;-74
2023/01/30 13:52:53;;;;;;;21.70;3.92;;;;;;;;;;5072025;28;20048;-74
2023/01/30 13:55:25;;;;;;;24.13;3.70;;;;;;;;;;5073009;28;20405;-74
2023/01/30 13:57:55;;;;;;;19.42;3.13;;;;;;;;;;5090629;28;20086;-73
2023/01/30 14:00:24;;;;;;;19.90;3.58;;;;;;;;;;5091276;28;20113;-74
2023/01/30 14:03:05;;;;;;;21.60;4.30;;;;;;;;;;5091541;28;20044;-74
2023/01/30 14:05:31;;;;;;;;;;;;;;;;;;5092436;28;20465;-74
2023/01/30 14:07:57;;;;;;;24.20;3.75;;;;;;;;;;5092083;28;19958;-74
2023/01/30 14:10:26;;;;;;;25.25;3.85;;;;;;;;;;5091605;28;20047;-72
2023/01/30 14:12:53;;;;;;;23.10;4.13;;;;;;;;;;5092145;28;20044;-73
2023/01/30 14:15:27;;;;;;;28.65;4.93;;;;;;;;;;5094449;28;20574;-73
2023/01/30 14:18:01;;;;;;;28.98;5.00;;;;;;;;;;5095987;28;20149;-74
2023/01/30 14:20:29;;;;;;;30.60;4.72;;;;;;;;;;5095980;28;20067;-73
2023/01/30 14:22:56;;;;;;;27.02;5.00;;;;;;;;;;5096121;28;20185;-73
2023/01/30 14:25:22;;;;;;;31.05;4.45;;;;;;;;;;5078830;28;20161;-73
2023/01/30 14:27:51;;;;;;;26.88;4.78;;;;;;;;;;5077891;28;20048;-73
2023/01/30 14:30:39;;;;;;;30.52;5.13;;;;;;;;;;5075587;28;20207;-74
2023/01/30 14:33:30;;;;;;;33.55;5.72;;;;;;;;;;5075221;28;20483;-73
2023/01/30 14:35:59;;;;;;;31.90;5.18;;;;;;;;;;5077302;28;20052;-73
2023/01/30 14:38:32;;;;;;;30.38;5.00;;;;;;;;;;5082952;28;20056;-73
2023/01/30 14:40:58;;;;;;;33.97;5.10;;;;;;;;;;5076717;28;20052;-73
2023/01/30 14:43:24;;;;;;;31.80;5.63;;;;;;;;;;5095396;28;20486;-73
2023/01/30 14:45:52;;;;;;;37.17;5.55;;;;;;;;;;5095728;28;20098;-73